Metar Aviation Weather Data LTBA Atatürk International

32°C Temp
14°C Dewpoint
33% Humidity
Temperature
23 KM/H
14 MPH
12 KTS
60°
East North
East

Wind Speed
Mostly Clear
Conditions
Pressure 1011 (hPa) - 29.85 (in)
Visibility 6.2 (mi) - 10.0 (km)

Current Conditions
LTBA
Atatürk International 6 km (3.2 mi)
Metar :LTBA 141220Z 06012KT 330V100 CAVOK 32/14 Q1011 NOSIG
Tue 14th August 15:20 pm

Airport
  Metar Aviation API Data Provided by https://www.checkwx.com/ PHP scripts by weather34.com ©2018